Time;durP1;ratioP1;P1;durP2;ratioP2;P2;SDS_P1;SDS_P2;PMS_P1;PMS_P2;Temp;Humidity;BMP_temperature;BMP_pressure;BME280_temperature;BME280_humidity;BME280_pressure;Samples;Min_cycle;Max_cycle;Signal;HPM_P1;HPM_P2
2022/10/11 00:00:37;;;;;;;11.73;4.13;;;6.50;99.90;;;;;;5071128;28;20123;-31
2022/10/11 00:03:03;;;;;;;11.95;4.07;;;6.50;99.90;;;;;;5065243;28;20040;-32
2022/10/11 00:05:29;;;;;;;15.95;4.05;;;6.50;99.90;;;;;;5073921;28;20071;-32
2022/10/11 00:07:55;;;;;;;13.75;4.47;;;6.50;99.90;;;;;;5071398;28;20072;-31
2022/10/11 00:10:22;;;;;;;12.93;4.40;;;6.40;99.90;;;;;;5071388;28;20127;-31
2022/10/11 00:12:48;;;;;;;14.88;3.95;;;6.50;99.90;;;;;;5073718;28;20139;-31
2022/10/11 00:15:17;;;;;;;11.35;3.85;;;6.40;99.90;;;;;;5066220;28;20142;-31
2022/10/11 00:17:43;;;;;;;8.40;3.47;;;6.40;99.90;;;;;;5073927;28;20032;-31
2022/10/11 00:20:09;;;;;;;7.78;3.45;;;6.30;99.90;;;;;;5074300;28;20413;-32
2022/10/11 00:22:36;;;;;;;10.43;3.55;;;6.30;99.90;;;;;;5064752;28;20043;-34
2022/10/11 00:25:04;;;;;;;10.23;3.85;;;6.30;99.90;;;;;;5063226;28;20496;-30
2022/10/11 00:27:29;;;;;;;8.07;3.60;;;6.20;99.90;;;;;;5065201;28;20043;-31
2022/10/11 00:29:55;;;;;;;11.13;2.90;;;6.20;99.90;;;;;;5071581;28;20044;-32
2022/10/11 00:32:21;;;;;;;8.95;3.85;;;6.20;99.90;;;;;;5069192;28;20036;-31
2022/10/11 00:34:47;;;;;;;10.70;3.92;;;6.10;99.90;;;;;;5062753;28;20119;-31
2022/10/11 00:37:12;;;;;;;13.52;3.60;;;6.10;99.90;;;;;;5082769;28;20038;-32
2022/10/11 00:39:38;;;;;;;10.93;3.50;;;6.10;99.90;;;;;;5065446;28;20078;-31
2022/10/11 00:42:09;;;;;;;9.32;3.30;;;6.00;99.90;;;;;;5067354;28;20047;-32
2022/10/11 00:44:35;;;;;;;9.68;3.42;;;6.00;99.90;;;;;;5062434;28;20480;-31
2022/10/11 00:47:07;;;;;;;8.25;3.80;;;6.00;99.90;;;;;;5066053;28;20048;-31
2022/10/11 00:49:38;;;;;;;10.70;3.83;;;6.00;99.90;;;;;;5070803;28;20039;-34
2022/10/11 00:52:07;;;;;;;9.35;4.10;;;6.00;99.90;;;;;;5054222;28;20513;-30
2022/10/11 00:54:36;;;;;;;11.95;3.50;;;6.00;99.90;;;;;;5054682;28;20119;-30
2022/10/11 00:57:06;;;;;;;10.73;3.88;;;6.10;99.90;;;;;;5054534;28;20032;-29
2022/10/11 00:59:38;;;;;;;10.18;3.50;;;6.10;99.90;;;;;;5072924;28;20044;-30
2022/10/11 01:02:05;;;;;;;9.77;3.33;;;6.00;99.90;;;;;;5054268;28;20044;-29
2022/10/11 01:04:31;;;;;;;12.23;3.75;;;6.00;99.90;;;;;;5054574;28;20514;-30
2022/10/11 01:06:57;;;;;;;11.20;3.40;;;6.00;99.90;;;;;;5054525;28;20090;-30
2022/10/11 01:09:25;;;;;;;11.32;3.47;;;6.00;99.90;;;;;;5054157;28;20044;-29
2022/10/11 01:11:52;;;;;;;14.35;3.88;;;6.00;99.90;;;;;;5054311;28;20040;-29
2022/10/11 01:14:33;;;;;;;13.88;3.60;;;5.90;99.90;;;;;;5054379;28;20031;-30
2022/10/11 01:17:20;;;;;;;7.45;3.40;;;5.90;99.90;;;;;;5054029;28;20041;-30
2022/10/11 01:20:08;;;;;;;9.38;3.15;;;6.00;99.90;;;;;;5054259;28;20044;-30
2022/10/11 01:23:01;;;;;;;9.07;3.92;;;6.00;99.90;;;;;;5054239;28;20040;-29
2022/10/11 01:25:43;;;;;;;10.73;3.78;;;6.00;99.90;;;;;;5054425;28;20067;-30
2022/10/11 01:28:25;;;;;;;7.50;3.15;;;6.00;99.90;;;;;;5054380;28;20036;-30
2022/10/11 01:30:57;;;;;;;9.70;3.28;;;6.00;99.90;;;;;;5054318;28;20045;-30
2022/10/11 01:33:31;;;;;;;12.52;3.30;;;6.00;99.90;;;;;;5071792;28;20171;-30
2022/10/11 01:36:03;;;;;;;8.88;3.30;;;6.00;99.90;;;;;;5053873;28;20041;-29
2022/10/11 01:38:43;;;;;;;9.05;3.63;;;6.00;99.90;;;;;;5054088;28;20036;-30
2022/10/11 01:41:23;;;;;;;8.73;3.17;;;6.00;99.90;;;;;;5053879;28;20036;-29
2022/10/11 01:43:53;;;;;;;9.07;3.38;;;5.90;99.90;;;;;;5053643;28;20037;-30
2022/10/11 01:46:20;;;;;;;12.07;3.72;;;5.80;99.90;;;;;;5071620;28;20033;-29
2022/10/11 01:48:51;;;;;;;10.55;3.17;;;5.80;99.90;;;;;;5056066;28;20045;-29
2022/10/11 01:51:21;;;;;;;14.35;4.00;;;5.80;99.90;;;;;;5058224;28;20032;-28
2022/10/11 01:54:37;;;;;;;12.35;3.60;;;5.90;99.90;;;;;;5057782;28;20070;-30
2022/10/11 01:57:17;;;;;;;11.13;3.70;;;5.90;99.90;;;;;;4958432;28;20085;-29
2022/10/11 02:00:02;;;;;;;8.13;3.40;;;5.90;99.90;;;;;;4958341;28;20077;-29
2022/10/11 02:02:37;;;;;;;11.45;3.78;;;5.80;99.90;;;;;;5026978;28;20053;-30
2022/10/11 02:05:18;;;;;;;16.75;4.28;;;5.80;99.90;;;;;;5057631;28;20036;-30
2022/10/11 02:07:56;;;;;;;15.20;4.47;;;5.80;99.90;;;;;;5057895;28;20044;-29
2022/10/11 02:10:33;;;;;;;18.35;4.50;;;5.80;99.90;;;;;;5057652;28;20494;-29
2022/10/11 02:13:09;;;;;;;11.00;3.67;;;5.80;99.90;;;;;;5057459;28;20067;-29
2022/10/11 02:15:39;;;;;;;14.90;4.43;;;5.70;99.90;;;;;;5057706;28;20070;-29
2022/10/11 02:18:10;;;;;;;10.07;3.63;;;5.70;99.90;;;;;;5057574;28;20106;-29
2022/10/11 02:20:38;;;;;;;12.65;3.35;;;5.70;99.90;;;;;;5040778;28;20076;-29
2022/10/11 02:23:15;;;;;;;10.95;3.90;;;5.70;99.90;;;;;;5057180;28;20055;-29
2022/10/11 02:25:43;;;;;;;9.85;3.53;;;5.70;99.90;;;;;;5056854;28;20047;-29
2022/10/11 02:28:15;;;;;;;11.30;3.97;;;5.60;99.90;;;;;;5056796;28;20060;-29
2022/10/11 02:30:43;;;;;;;9.48;3.38;;;5.60;99.90;;;;;;5056969;28;20044;-28
2022/10/11 02:33:13;;;;;;;11.35;4.05;;;5.50;99.90;;;;;;5056529;28;20037;-29
2022/10/11 02:35:43;;;;;;;12.48;3.30;;;5.50;99.90;;;;;;5055986;28;20036;-29
2022/10/11 02:38:25;;;;;;;10.32;3.58;;;5.50;99.90;;;;;;5056578;28;20085;-29
2022/10/11 02:41:27;;;;;;;12.30;3.90;;;5.60;99.90;;;;;;5057011;28;20103;-29
2022/10/11 02:44:05;;;;;;;10.10;3.40;;;5.60;99.90;;;;;;5035215;28;20135;-29
2022/10/11 02:46:31;;;;;;;6.97;3.60;;;5.60;99.90;;;;;;5057201;28;20512;-29
2022/10/11 02:48:59;;;;;;;12.27;3.85;;;5.60;99.90;;;;;;5057008;28;20466;-30
2022/10/11 02:51:28;;;;;;;9.73;3.53;;;5.60;99.90;;;;;;5056779;28;20045;-29
2022/10/11 02:53:54;;;;;;;10.18;3.05;;;5.60;99.90;;;;;;5056907;28;20445;-29
2022/10/11 02:56:20;;;;;;;14.23;4.10;;;5.50;99.90;;;;;;5056714;28;20044;-31
2022/10/11 02:58:45;;;;;;;11.65;3.50;;;5.60;99.90;;;;;;5056880;28;20086;-30
2022/10/11 03:01:11;;;;;;;9.88;3.40;;;5.60;99.90;;;;;;5055956;28;20490;-30
2022/10/11 03:03:37;;;;;;;7.80;2.60;;;5.50;99.90;;;;;;5056410;28;20044;-29
2022/10/11 03:06:04;;;;;;;10.43;3.22;;;5.50;99.90;;;;;;5056887;28;20398;-29
2022/10/11 03:08:30;;;;;;;19.70;8.55;;;5.50;99.90;;;;;;5056458;28;20043;-29
2022/10/11 03:10:55;;;;;;;9.73;4.57;;;5.50;99.90;;;;;;5056643;28;20044;-29
2022/10/11 03:13:21;;;;;;;9.60;4.32;;;5.50;99.90;;;;;;5056584;28;20116;-29
2022/10/11 03:15:52;;;;;;;12.00;4.97;;;5.50;99.90;;;;;;5039816;28;20037;-29
2022/10/11 03:18:17;;;;;;;6.43;3.63;;;5.50;99.90;;;;;;5056622;28;20047;-30
2022/10/11 03:20:44;;;;;;;9.38;3.75;;;5.40;99.90;;;;;;5056143;28;20557;-29
2022/10/11 03:23:10;;;;;;;14.32;4.68;;;5.40;99.90;;;;;;5056116;28;20042;-30
2022/10/11 03:25:36;;;;;;;12.98;4.55;;;5.40;99.90;;;;;;5056121;28;20033;-30
2022/10/11 03:28:02;;;;;;;12.90;3.70;;;5.40;99.90;;;;;;5056123;28;20039;-30
2022/10/11 03:30:28;;;;;;;8.95;3.50;;;5.40;99.90;;;;;;5073724;28;20076;-29
2022/10/11 03:32:54;;;;;;;9.05;4.00;;;5.40;99.90;;;;;;5055829;28;20040;-29
2022/10/11 03:35:19;;;;;;;7.45;3.95;;;5.40;99.90;;;;;;5056038;28;20036;-29
2022/10/11 03:37:45;;;;;;;10.90;4.20;;;5.30;99.90;;;;;;5056044;28;20115;-30
2022/10/11 03:40:12;;;;;;;8.18;3.58;;;5.30;99.90;;;;;;5056242;28;20498;-29
2022/10/11 03:42:38;;;;;;;10.32;3.67;;;5.30;99.90;;;;;;5055845;28;20040;-29
2022/10/11 03:45:07;;;;;;;11.93;4.90;;;5.30;99.90;;;;;;5055820;28;20128;-30
2022/10/11 03:47:34;;;;;;;9.65;4.05;;;5.20;99.90;;;;;;5055992;28;20048;-29
2022/10/11 03:49:59;;;;;;;8.95;3.67;;;5.20;99.90;;;;;;5055901;28;20045;-29
2022/10/11 03:52:25;;;;;;;6.75;3.78;;;5.20;99.90;;;;;;5055653;28;20394;-29
2022/10/11 03:54:51;;;;;;;9.10;3.67;;;5.20;99.90;;;;;;5055911;28;20047;-29
2022/10/11 03:57:17;;;;;;;12.95;4.35;;;5.20;99.90;;;;;;5055538;28;20140;-29
2022/10/11 03:59:43;;;;;;;14.10;4.15;;;5.10;99.90;;;;;;5056024;28;20082;-30
2022/10/11 04:02:08;;;;;;;7.70;3.58;;;5.10;99.90;;;;;;5055518;28;20040;-29
2022/10/11 04:04:34;;;;;;;9.38;3.28;;;5.10;99.90;;;;;;5055491;28;20102;-31
2022/10/11 04:07:00;;;;;;;7.68;3.72;;;5.10;99.90;;;;;;5055632;28;20360;-31
2022/10/11 04:09:26;;;;;;;6.78;3.20;;;5.10;99.90;;;;;;5055413;28;20044;-29
2022/10/11 04:11:51;;;;;;;8.98;4.32;;;5.10;99.90;;;;;;5054560;28;20401;-30
2022/10/11 04:14:17;;;;;;;6.07;3.80;;;5.00;99.90;;;;;;5038596;28;20451;-30
2022/10/11 04:16:43;;;;;;;9.35;3.63;;;5.00;99.90;;;;;;5073036;28;20076;-29
2022/10/11 04:19:08;;;;;;;10.07;4.38;;;5.00;99.90;;;;;;5055160;28;20037;-30
2022/10/11 04:21:34;;;;;;;10.50;4.03;;;5.00;99.90;;;;;;5055201;28;20483;-30
2022/10/11 04:24:00;;;;;;;5.45;3.25;;;5.10;99.90;;;;;;5054733;28;20405;-29
2022/10/11 04:26:26;;;;;;;7.43;3.30;;;5.10;99.90;;;;;;5054983;28;20040;-29
2022/10/11 04:28:51;;;;;;;17.73;5.35;;;5.00;99.90;;;;;;5054762;28;20123;-29
2022/10/11 04:31:17;;;;;;;9.40;3.75;;;5.00;99.90;;;;;;5054887;28;20044;-30
2022/10/11 04:33:43;;;;;;;12.55;3.90;;;5.00;99.90;;;;;;5054986;28;20032;-29
2022/10/11 04:36:09;;;;;;;10.45;3.28;;;5.10;99.90;;;;;;5054964;28;20285;-29
2022/10/11 04:38:34;;;;;;;5.85;3.40;;;5.00;99.90;;;;;;5054603;28;20040;-29
2022/10/11 04:41:07;;;;;;;8.70;3.75;;;5.00;99.90;;;;;;5054805;28;20044;-29
2022/10/11 04:43:33;;;;;;;14.98;4.72;;;4.90;99.90;;;;;;5072263;28;20123;-29
2022/10/11 04:45:59;;;;;;;7.53;3.97;;;4.90;99.90;;;;;;5054859;28;20395;-29
2022/10/11 04:48:25;;;;;;;9.95;3.55;;;4.90;99.90;;;;;;5054468;28;20494;-30
2022/10/11 04:50:51;;;;;;;10.75;3.85;;;5.00;99.90;;;;;;5054217;28;20041;-29
2022/10/11 04:53:16;;;;;;;14.10;3.92;;;4.90;99.90;;;;;;5037115;28;20086;-29
2022/10/11 04:55:42;;;;;;;10.98;4.20;;;4.90;99.90;;;;;;5053425;28;20044;-29
2022/10/11 04:58:08;;;;;;;8.95;3.95;;;4.90;99.90;;;;;;5070686;28;20382;-29
2022/10/11 05:00:33;;;;;;;7.95;4.68;;;4.90;99.90;;;;;;5052944;28;20044;-29
2022/10/11 05:02:59;;;;;;;11.18;4.30;;;4.90;99.90;;;;;;5036927;28;20056;-29
2022/10/11 05:05:25;;;;;;;9.52;4.10;;;4.90;99.90;;;;;;5052873;28;20133;-29
2022/10/11 05:07:51;;;;;;;8.05;3.40;;;4.90;99.90;;;;;;5051426;28;20040;-29
2022/10/11 05:10:17;;;;;;;13.27;4.50;;;4.90;99.90;;;;;;5051860;28;20049;-28
2022/10/11 05:12:43;;;;;;;8.90;3.90;;;4.80;99.90;;;;;;5052081;28;20032;-28
2022/10/11 05:15:09;;;;;;;9.95;3.97;;;4.80;99.90;;;;;;5051758;28;20410;-30
2022/10/11 05:17:35;;;;;;;7.05;3.53;;;4.90;99.90;;;;;;5050657;28;20040;-28
2022/10/11 05:20:00;;;;;;;8.60;4.22;;;4.90;99.90;;;;;;5050687;28;20558;-28
2022/10/11 05:22:26;;;;;;;10.18;3.70;;;4.90;99.90;;;;;;5051557;28;20079;-29
2022/10/11 05:24:52;;;;;;;10.38;4.28;;;4.90;99.90;;;;;;5052030;28;20044;-28
2022/10/11 05:27:18;;;;;;;9.32;4.47;;;4.90;99.90;;;;;;5052354;28;20079;-28
2022/10/11 05:29:43;;;;;;;6.97;3.60;;;4.90;99.90;;;;;;5052089;28;20040;-29
2022/10/11 05:32:09;;;;;;;10.88;4.90;;;4.90;99.90;;;;;;5054004;28;20071;-27
2022/10/11 05:34:35;;;;;;;8.60;4.80;;;4.90;99.90;;;;;;5053823;28;20079;-28
2022/10/11 05:37:00;;;;;;;7.90;4.50;;;4.90;99.90;;;;;;5054324;28;20072;-28
2022/10/11 05:39:26;;;;;;;11.52;4.90;;;4.80;99.90;;;;;;5054153;28;20508;-28
2022/10/11 05:41:52;;;;;;;10.15;4.57;;;4.80;99.90;;;;;;5054184;28;20371;-28
2022/10/11 05:44:18;;;;;;;11.50;5.13;;;4.80;99.90;;;;;;5053698;28;20079;-28
2022/10/11 05:46:44;;;;;;;9.48;4.88;;;4.90;99.90;;;;;;5053955;28;20071;-28
2022/10/11 05:49:10;;;;;;;7.75;4.43;;;4.90;99.90;;;;;;5053758;28;20044;-28
2022/10/11 05:51:35;;;;;;;7.95;5.05;;;4.80;99.90;;;;;;5037376;28;20040;-28
2022/10/11 05:54:01;;;;;;;12.23;6.65;;;4.80;99.90;;;;;;5054033;28;20066;-28
2022/10/11 05:56:27;;;;;;;11.48;7.45;;;4.80;99.90;;;;;;5054066;28;20041;-28
2022/10/11 05:58:53;;;;;;;10.98;5.25;;;4.90;99.90;;;;;;5053731;28;20047;-29
2022/10/11 06:01:23;;;;;;;9.80;6.80;;;4.90;99.90;;;;;;5071837;28;20032;-28
2022/10/11 06:03:49;;;;;;;11.15;5.80;;;4.90;99.90;;;;;;5053540;28;20048;-28
2022/10/11 06:06:15;;;;;;;13.45;7.90;;;4.90;99.90;;;;;;5053782;28;20072;-28
2022/10/11 06:08:42;;;;;;;13.00;7.70;;;5.00;99.90;;;;;;5054169;28;20133;-28
2022/10/11 06:11:19;;;;;;;9.23;7.63;;;5.00;99.90;;;;;;5053647;28;20069;-28
2022/10/11 06:13:45;;;;;;;9.90;7.30;;;4.90;99.90;;;;;;5071592;28;20040;-28
2022/10/11 06:16:11;;;;;;;12.40;6.60;;;4.90;99.90;;;;;;5053918;28;20048;-29
2022/10/11 06:18:37;;;;;;;10.32;6.60;;;5.00;99.90;;;;;;5053325;28;20482;-28
2022/10/11 06:21:03;;;;;;;14.60;6.15;;;5.00;99.90;;;;;;5053924;28;20400;-29
2022/10/11 06:23:28;;;;;;;11.65;5.90;;;5.10;99.90;;;;;;5053340;28;20119;-28
2022/10/11 06:26:04;;;;;;;9.05;5.88;;;5.10;99.90;;;;;;5053854;28;20037;-28
2022/10/11 06:28:30;;;;;;;7.30;5.57;;;5.10;99.90;;;;;;5053494;28;20033;-29
2022/10/11 06:30:56;;;;;;;13.65;5.90;;;5.10;99.90;;;;;;5053320;28;20045;-28
2022/10/11 06:33:23;;;;;;;8.57;5.70;;;5.10;99.90;;;;;;5053688;28;20072;-29
2022/10/11 06:35:55;;;;;;;9.05;5.40;;;5.10;99.90;;;;;;5055450;28;20046;-29
2022/10/11 06:38:21;;;;;;;12.90;7.00;;;5.20;99.90;;;;;;5056993;28;20040;-29
2022/10/11 06:40:47;;;;;;;10.70;6.00;;;5.20;99.90;;;;;;5057115;28;20078;-28
2022/10/11 06:43:12;;;;;;;10.40;6.07;;;5.20;99.90;;;;;;5057186;28;20047;-31
2022/10/11 06:45:38;;;;;;;11.70;8.32;;;5.20;99.90;;;;;;5056982;28;20048;-29
2022/10/11 06:48:04;;;;;;;14.73;8.80;;;5.20;99.90;;;;;;5057228;28;20044;-28
2022/10/11 06:50:31;;;;;;;11.90;8.00;;;5.30;99.90;;;;;;5057015;28;20044;-28
2022/10/11 06:52:58;;;;;;;13.30;6.65;;;5.30;99.90;;;;;;5056752;28;20066;-31
2022/10/11 06:55:23;;;;;;;10.75;6.55;;;5.40;99.90;;;;;;5057005;28;20032;-29
2022/10/11 06:57:49;;;;;;;8.98;7.13;;;5.40;99.90;;;;;;5056968;28;20378;-28
2022/10/11 07:00:15;;;;;;;12.45;6.82;;;5.50;99.90;;;;;;5056938;28;20473;-28
2022/10/11 07:02:41;;;;;;;11.32;5.50;;;5.60;99.90;;;;;;5056942;28;20520;-29
2022/10/11 07:05:07;;;;;;;11.85;6.30;;;5.70;99.90;;;;;;5056539;28;20254;-30
2022/10/11 07:07:33;;;;;;;8.95;6.75;;;5.70;99.90;;;;;;5056572;28;20304;-29
2022/10/11 07:09:59;;;;;;;10.57;5.72;;;5.70;99.90;;;;;;5056757;28;20049;-29
2022/10/11 07:12:24;;;;;;;7.28;5.70;;;5.80;99.90;;;;;;5056577;28;20393;-28
2022/10/11 07:14:50;;;;;;;12.10;6.15;;;5.90;99.90;;;;;;5056371;28;20049;-28
2022/10/11 07:17:16;;;;;;;11.45;5.10;;;6.00;99.90;;;;;;5056559;28;20040;-29
2022/10/11 07:19:41;;;;;;;9.70;5.00;;;6.00;99.90;;;;;;5056662;28;20395;-28
2022/10/11 07:22:07;;;;;;;10.73;5.85;;;6.10;99.90;;;;;;5056474;28;20040;-27
2022/10/11 07:24:33;;;;;;;8.60;5.03;;;6.20;99.90;;;;;;5056508;28;20041;-29
2022/10/11 07:26:58;;;;;;;8.25;4.70;;;6.20;99.90;;;;;;5039564;28;20410;-29
2022/10/11 07:29:24;;;;;;;12.20;4.65;;;6.30;99.90;;;;;;5056339;28;20050;-29
2022/10/11 07:31:50;;;;;;;7.63;4.25;;;6.40;99.90;;;;;;5039533;28;20508;-29
2022/10/11 07:34:16;;;;;;;8.60;4.65;;;6.50;99.90;;;;;;5056339;28;20040;-29
2022/10/11 07:36:42;;;;;;;11.55;5.05;;;6.60;99.90;;;;;;5055972;28;20044;-29
2022/10/11 07:39:08;;;;;;;9.60;4.88;;;6.70;99.90;;;;;;5073747;28;20044;-28
2022/10/11 07:41:35;;;;;;;6.53;4.57;;;6.80;99.90;;;;;;5056267;28;20047;-29
2022/10/11 07:44:02;;;;;;;11.68;4.50;;;6.90;99.90;;;;;;5055729;28;20052;-29
2022/10/11 07:46:28;;;;;;;11.57;4.50;;;7.00;99.90;;;;;;5055993;28;20047;-28
2022/10/11 07:48:53;;;;;;;11.38;5.25;;;7.00;99.90;;;;;;5055940;28;20367;-29
2022/10/11 07:51:21;;;;;;;5.43;4.50;;;7.20;99.90;;;;;;5055750;28;20037;-29
2022/10/11 07:53:52;;;;;;;6.68;4.57;;;7.30;99.90;;;;;;5056098;28;20032;-30
2022/10/11 07:56:23;;;;;;;12.48;4.47;;;7.50;99.90;;;;;;5056170;28;20090;-29
2022/10/11 07:58:51;;;;;;;12.20;4.32;;;7.70;99.90;;;;;;5055703;28;20036;-29
2022/10/11 08:01:18;;;;;;;8.20;3.83;;;8.00;99.90;;;;;;5055832;28;20474;-28
2022/10/11 08:03:44;;;;;;;8.45;4.50;;;8.20;99.90;;;;;;5055985;28;20033;-28
2022/10/11 08:06:12;;;;;;;6.32;3.80;;;8.40;99.90;;;;;;5055993;28;20036;-29
2022/10/11 08:08:38;;;;;;;10.13;3.70;;;8.70;99.90;;;;;;5039252;28;20042;-29
2022/10/11 08:11:04;;;;;;;9.63;4.03;;;9.00;99.90;;;;;;5055243;28;20044;-29
2022/10/11 08:13:30;;;;;;;6.78;4.13;;;9.30;99.90;;;;;;5055415;28;20120;-29
2022/10/11 08:15:56;;;;;;;12.38;4.82;;;9.60;99.90;;;;;;5055450;28;20041;-28
2022/10/11 08:18:22;;;;;;;9.52;3.97;;;10.00;99.90;;;;;;5055169;28;20089;-29
2022/10/11 08:20:48;;;;;;;8.95;4.07;;;10.50;99.90;;;;;;5055077;28;20040;-29
2022/10/11 08:23:16;;;;;;;9.93;3.65;;;10.80;99.90;;;;;;5055342;28;20047;-30
2022/10/11 08:25:44;;;;;;;9.02;3.50;;;11.10;99.90;;;;;;5055395;28;20097;-29
2022/10/11 08:28:15;;;;;;;12.15;3.72;;;11.50;99.90;;;;;;5073395;28;20513;-29
2022/10/11 08:30:52;;;;;;;7.82;2.88;;;12.00;99.90;;;;;;5054836;28;20048;-30
2022/10/11 08:33:22;;;;;;;7.10;3.03;;;12.40;99.90;;;;;;5054949;28;20078;-29
2022/10/11 08:35:49;;;;;;;12.30;3.17;;;12.80;99.90;;;;;;5054951;28;20037;-30
2022/10/11 08:38:15;;;;;;;6.43;2.60;;;13.00;99.90;;;;;;5054991;28;20127;-30
2022/10/11 08:40:48;;;;;;;8.27;3.05;;;13.10;99.90;;;;;;5054826;28;20040;-29
2022/10/11 08:43:37;;;;;;;8.90;3.23;;;13.20;99.90;;;;;;5037846;28;20327;-30
2022/10/11 08:46:05;;;;;;;5.88;3.20;;;13.50;99.90;;;;;;5054906;28;20290;-29
2022/10/11 08:48:41;;;;;;;10.48;3.28;;;13.70;99.90;;;;;;5054610;28;20036;-30
2022/10/11 08:51:21;;;;;;;5.30;3.00;;;14.00;99.90;;;;;;5054906;28;20389;-30
2022/10/11 08:53:52;;;;;;;8.65;3.20;;;14.20;99.90;;;;;;5054775;28;20459;-29
2022/10/11 08:56:19;;;;;;;9.35;3.15;;;14.20;99.90;;;;;;5054584;28;20064;-29
2022/10/11 08:59:10;;;;;;;7.75;2.95;;;14.30;99.90;;;;;;5054158;28;20032;-30
2022/10/11 09:01:50;;;;;;;6.93;3.00;;;14.70;99.90;;;;;;5054409;28;20047;-30
2022/10/11 09:04:17;;;;;;;9.82;3.20;;;15.00;99.90;;;;;;5054487;28;20059;-30
2022/10/11 09:06:42;;;;;;;8.15;2.65;;;15.10;99.90;;;;;;5054634;28;20079;-29
2022/10/11 09:09:26;;;;;;;7.68;2.95;;;15.30;99.90;;;;;;5072103;28;20089;-29
2022/10/11 09:12:06;;;;;;;6.50;3.13;;;15.40;99.90;;;;;;5054283;28;20045;-30
2022/10/11 09:14:32;;;;;;;10.73;2.88;;;15.80;99.90;;;;;;5072243;28;20044;-30
2022/10/11 09:17:22;;;;;;;10.80;3.47;;;16.20;99.90;;;;;;5054217;28;20608;-29
2022/10/11 09:20:16;;;;;;;8.90;2.85;;;16.10;99.90;;;;;;5054538;28;20047;-30
2022/10/11 09:22:42;;;;;;;7.28;2.75;;;16.30;99.90;;;;;;5054407;28;20504;-29
2022/10/11 09:25:33;;;;;;;7.63;2.80;;;16.50;99.90;;;;;;5054442;28;20119;-30
2022/10/11 09:28:14;;;;;;;10.38;2.70;;;16.70;99.90;;;;;;5054593;28;20183;-30
2022/10/11 09:30:47;;;;;;;7.28;2.28;;;16.90;99.90;;;;;;5054245;28;20128;-29
2022/10/11 09:33:26;;;;;;;10.00;2.60;;;16.80;99.90;;;;;;5054345;28;20039;-30
2022/10/11 09:35:55;;;;;;;8.88;2.83;;;16.80;99.90;;;;;;5054171;28;20141;-31
2022/10/11 09:38:39;;;;;;;9.05;2.83;;;17.10;99.90;;;;;;5054278;28;20475;-29
2022/10/11 09:41:27;;;;;;;10.90;2.80;;;17.40;99.90;;;;;;5053919;28;20045;-29
2022/10/11 09:43:53;;;;;;;8.48;2.80;;;17.40;99.90;;;;;;5053790;28;20036;-30
2022/10/11 09:46:19;;;;;;;7.43;2.90;;;17.70;99.90;;;;;;5037518;28;20040;-29
2022/10/11 09:48:46;;;;;;;6.82;1.90;;;18.30;99.90;;;;;;5054199;28;20036;-30
2022/10/11 09:51:19;;;;;;;8.20;2.45;;;18.60;99.90;;;;;;5053769;28;20054;-30
2022/10/11 09:53:51;;;;;;;;;;;18.70;99.90;;;;;;5037808;28;20390;-30
2022/10/11 09:56:17;;;;;;;8.05;2.17;;;18.80;99.90;;;;;;5054123;28;19916;-30
2022/10/11 09:58:43;;;;;;;6.38;2.40;;;19.00;99.90;;;;;;5054043;28;20047;-30
2022/10/11 10:01:22;;;;;;;8.70;2.40;;;19.10;99.90;;;;;;5053989;28;20040;-30
2022/10/11 10:04:09;;;;;;;8.75;2.33;;;18.90;99.90;;;;;;5054055;28;20045;-30
2022/10/11 10:06:36;;;;;;;7.88;2.28;;;18.90;99.90;;;;;;5053751;28;20037;-30
2022/10/11 10:09:29;;;;;;;7.15;2.40;;;18.80;99.90;;;;;;5053734;28;20049;-30
2022/10/11 10:11:55;;;;;;;8.40;2.22;;;19.10;99.90;;;;;;5057603;28;20036;-31
2022/10/11 10:14:27;;;;;;;7.00;2.05;;;19.30;99.90;;;;;;5057558;28;20044;-29
2022/10/11 10:17:20;;;;;;;6.85;2.30;;;19.60;99.90;;;;;;5057850;28;20505;-30
2022/10/11 10:19:52;;;;;;;8.07;2.20;;;19.70;99.90;;;;;;5053034;28;20048;-29
2022/10/11 10:22:20;;;;;;;8.88;2.78;;;19.80;99.90;;;;;;5057738;28;20059;-30
2022/10/11 10:24:48;;;;;;;6.05;2.03;;;19.90;99.90;;;;;;5062369;28;20106;-29
2022/10/11 10:27:23;;;;;;;6.88;1.92;;;20.10;99.90;;;;;;5077629;28;20063;-29
2022/10/11 10:30:07;;;;;;;8.70;2.30;;;20.50;99.90;;;;;;5077272;28;20044;-30
2022/10/11 10:32:49;;;;;;;9.25;2.00;;;20.60;96.20;;;;;;5077523;28;20090;-29
2022/10/11 10:35:35;;;;;;;6.32;2.42;;;20.60;91.30;;;;;;5077615;28;20194;-30
2022/10/11 10:38:26;;;;;;;6.93;2.20;;;20.60;99.90;;;;;;5059810;28;20139;-29
2022/10/11 10:40:56;;;;;;;8.48;2.50;;;20.20;92.50;;;;;;5077463;28;20082;-31
2022/10/11 10:43:26;;;;;;;9.52;2.55;;;20.10;99.90;;;;;;5077164;28;20485;-30
2022/10/11 10:46:32;;;;;;;9.48;2.22;;;20.40;99.90;;;;;;5077378;28;20123;-30
2022/10/11 10:49:07;;;;;;;6.25;2.05;;;20.70;95.60;;;;;;4996986;28;20408;-30
2022/10/11 10:51:42;;;;;;;8.48;2.00;;;20.70;88.70;;;;;;5077300;28;20097;-30
2022/10/11 10:54:31;;;;;;;8.65;2.33;;;21.20;99.70;;;;;;5077192;28;20443;-29
2022/10/11 10:57:00;;;;;;;7.18;2.53;;;21.60;85.80;;;;;;5026387;28;20165;-29
2022/10/11 10:59:44;;;;;;;7.75;2.55;;;21.90;80.30;;;;;;5094858;28;20036;-30
2022/10/11 11:02:27;;;;;;;10.30;2.92;;;22.30;83.90;;;;;;5077095;28;20051;-30
2022/10/11 11:05:24;;;;;;;9.00;2.50;;;22.50;74.70;;;;;;5076785;28;20075;-31
2022/10/11 11:07:59;;;;;;;8.63;2.25;;;22.00;63.30;;;;;;5059898;28;20056;-30
2022/10/11 11:10:37;;;;;;;7.50;2.17;;;21.40;80.50;;;;;;5076554;28;20107;-30
2022/10/11 11:13:22;;;;;;;6.32;2.47;;;21.10;81.60;;;;;;5076707;28;20039;-30
2022/10/11 11:16:15;;;;;;;7.38;2.33;;;20.70;79.80;;;;;;5076891;28;20067;-30
2022/10/11 11:19:01;;;;;;;7.63;2.10;;;20.70;75.90;;;;;;5059045;28;20067;-29
2022/10/11 11:21:29;;;;;;;8.70;2.63;;;21.10;85.10;;;;;;5075277;28;20044;-30
2022/10/11 11:24:15;;;;;;;6.95;2.50;;;21.20;90.60;;;;;;5076028;28;20036;-30
2022/10/11 11:27:16;;;;;;;9.18;2.38;;;21.40;82.60;;;;;;5076240;28;20036;-30
2022/10/11 11:29:48;;;;;;;7.60;2.45;;;21.60;80.20;;;;;;5021655;28;20084;-30
2022/10/11 11:32:47;;;;;;;8.20;2.03;;;21.70;84.70;;;;;;5076205;28;20070;-30
2022/10/11 11:35:37;;;;;;;10.35;2.67;;;21.70;65.90;;;;;;5076042;28;20481;-30
2022/10/11 11:38:15;;;;;;;8.05;2.17;;;21.60;73.30;;;;;;5064514;28;20044;-30
2022/10/11 11:40:45;;;;;;;8.82;2.35;;;22.20;70.50;;;;;;5094385;28;20043;-30
2022/10/11 11:43:23;;;;;;;7.20;1.90;;;22.80;66.60;;;;;;5075993;28;20079;-30
2022/10/11 11:46:11;;;;;;;9.88;2.60;;;23.40;60.40;;;;;;5076319;28;20044;-30
2022/10/11 11:48:38;;;;;;;6.20;2.28;;;23.70;56.00;;;;;;5076208;28;20230;-31
2022/10/11 11:51:36;;;;;;;6.25;2.03;;;23.60;58.80;;;;;;5060026;28;20047;-30
2022/10/11 11:54:27;;;;;;;7.53;2.13;;;23.30;55.90;;;;;;5055741;28;20101;-30
2022/10/11 11:57:14;;;;;;;6.55;2.05;;;22.70;57.30;;;;;;5056045;28;20390;-30
2022/10/11 12:00:10;;;;;;;10.10;2.53;;;21.10;59.20;;;;;;5055602;28;20127;-30
2022/10/11 12:02:50;;;;;;;7.72;1.88;;;20.10;70.70;;;;;;5036956;28;20406;-30
2022/10/11 12:05:20;;;;;;;8.00;2.33;;;19.80;83.30;;;;;;5054107;28;20051;-31
2022/10/11 12:07:51;;;;;;;8.80;2.33;;;19.30;86.10;;;;;;5038474;28;20040;-30
2022/10/11 12:10:35;;;;;;;7.70;1.80;;;18.80;90.10;;;;;;5055695;28;20049;-29
2022/10/11 12:13:35;;;;;;;8.05;2.33;;;18.30;91.40;;;;;;5072114;28;20041;-29
2022/10/11 12:16:11;;;;;;;4.43;1.77;;;18.90;99.90;;;;;;5002987;28;20513;-29
2022/10/11 12:19:08;;;;;;;8.85;2.17;;;20.20;93.00;;;;;;5055535;28;20469;-30
2022/10/11 12:21:39;;;;;;;7.82;2.08;;;21.50;86.90;;;;;;5037919;28;20047;-30
2022/10/11 12:24:19;;;;;;;8.20;2.25;;;22.00;68.30;;;;;;5055430;28;20037;-30
2022/10/11 12:26:56;;;;;;;8.45;2.22;;;21.40;69.30;;;;;;5055393;28;20032;-30
2022/10/11 12:29:43;;;;;;;8.85;2.13;;;21.50;70.80;;;;;;5055061;28;20040;-31
2022/10/11 12:32:10;;;;;;;6.50;1.90;;;21.70;60.90;;;;;;5054512;28;20032;-30
2022/10/11 12:34:38;;;;;;;8.32;2.30;;;21.90;62.90;;;;;;5054454;28;20044;-30
2022/10/11 12:37:19;;;;;;;6.93;2.30;;;22.60;61.20;;;;;;5055195;28;20033;-29
2022/10/11 12:39:56;;;;;;;9.80;2.25;;;23.30;53.70;;;;;;5055104;28;20116;-30
2022/10/11 12:42:28;;;;;;;7.63;2.00;;;23.90;51.40;;;;;;5054844;28;20047;-30
2022/10/11 12:45:09;;;;;;;9.98;2.58;;;23.70;51.70;;;;;;5054827;28;20036;-30
2022/10/11 12:47:46;;;;;;;4.70;1.88;;;23.50;52.00;;;;;;5054683;28;20087;-29
2022/10/11 12:50:33;;;;;;;7.40;2.33;;;23.20;52.00;;;;;;5054816;28;20089;-30
2022/10/11 12:53:20;;;;;;;8.38;2.10;;;23.20;54.30;;;;;;5037767;28;20040;-30
2022/10/11 12:56:01;;;;;;;7.80;2.25;;;23.70;52.10;;;;;;5054888;28;20047;-30
2022/10/11 12:58:45;;;;;;;6.97;2.38;;;24.20;51.80;;;;;;5054850;28;20120;-29
2022/10/11 13:01:17;;;;;;;8.73;2.65;;;25.00;50.40;;;;;;5054857;28;20040;-30
2022/10/11 13:03:58;;;;;;;6.95;2.10;;;25.20;48.80;;;;;;5054336;28;20036;-30
2022/10/11 13:06:34;;;;;;;8.45;1.98;;;24.90;49.30;;;;;;5054437;28;20071;-30
2022/10/11 13:09:03;;;;;;;7.05;2.05;;;25.00;47.50;;;;;;5054255;28;20044;-30
2022/10/11 13:11:34;;;;;;;6.45;2.30;;;24.10;47.90;;;;;;5054650;28;20090;-30
2022/10/11 13:14:15;;;;;;;6.90;2.03;;;23.00;49.30;;;;;;5054200;28;20033;-30